Time;durP1;ratioP1;P1;durP2;ratioP2;P2;SDS_P1;SDS_P2;PMS_P1;PMS_P2;Temp;Humidity;BMP_temperature;BMP_pressure;BME280_temperature;BME280_humidity;BME280_pressure;Samples;Min_cycle;Max_cycle;Signal;HPM_P1;HPM_P2
2021/07/17 00:00:14;;;;;;;6.10;5.60;;;;;;;22.93;59.64;99156.03;5035525;28;20286;-87
2021/07/17 00:02:41;;;;;;;8.00;5.53;;;;;;;22.93;59.69;99156.03;5053005;28;20232;-87
2021/07/17 00:05:13;;;;;;;5.93;5.45;;;;;;;22.79;60.39;99150.66;5036398;28;20663;-87
2021/07/17 00:07:41;;;;;;;6.10;5.60;;;;;;;22.74;60.60;99145.31;5036326;28;20229;-86
2021/07/17 00:10:19;;;;;;;6.60;5.15;;;;;;;22.64;60.94;99143.59;5019198;28;20243;-85
2021/07/17 00:12:47;;;;;;;5.68;5.10;;;;;;;22.55;61.12;99145.47;5052761;28;20241;-87
2021/07/17 00:15:16;;;;;;;7.45;4.95;;;;;;;22.51;60.81;99146.41;5052763;28;20233;-86
2021/07/17 00:17:45;;;;;;;5.32;4.88;;;;;;;22.54;60.22;99143.03;5036243;28;20232;-86
2021/07/17 00:20:13;;;;;;;4.93;4.40;;;;;;;22.51;60.25;99152.66;5035511;28;20321;-86
2021/07/17 00:22:40;;;;;;;5.00;4.60;;;;;;;22.42;60.49;99142.78;5019445;28;20231;-86
2021/07/17 00:25:15;;;;;;;6.00;5.10;;;;;;;22.46;60.59;99147.31;5035923;28;20312;-86
2021/07/17 00:27:42;;;;;;;5.70;5.07;;;;;;;22.37;60.80;99138.25;5052229;28;20286;-86
2021/07/17 00:30:10;;;;;;;5.93;5.35;;;;;;;22.47;60.98;99146.22;5035351;28;20229;-87
2021/07/17 00:32:36;;;;;;;6.82;6.32;;;;;;;22.66;60.63;99144.13;5036052;28;20225;-87
2021/07/17 00:35:05;;;;;;;6.88;5.70;;;;;;;22.59;60.76;99121.06;5052596;28;20225;-86
2021/07/17 00:37:33;;;;;;;6.40;5.80;;;;;;;22.72;60.61;99128.44;5019653;28;20236;-87
2021/07/17 00:40:01;;;;;;;6.30;5.80;;;;;;;22.73;60.75;99127.31;5052238;28;20257;-85
2021/07/17 00:42:29;;;;;;;6.97;6.22;;;;;;;22.87;60.54;99129.97;5051957;28;20307;-87
2021/07/17 00:44:56;;;;;;;6.78;5.85;;;;;;;22.92;60.38;99124.38;5035846;28;20584;-87
2021/07/17 00:47:23;;;;;;;6.50;5.90;;;;;;;22.93;60.15;99123.25;5019222;28;20541;-86
2021/07/17 00:49:50;;;;;;;6.80;6.20;;;;;;;22.83;60.14;99118.88;5019485;28;20691;-86
2021/07/17 00:52:17;;;;;;;6.63;6.05;;;;;;;22.92;60.13;99127.09;5035223;28;20227;-86
2021/07/17 00:54:44;;;;;;;6.65;5.97;;;;;;;23.04;60.04;99128.16;5068990;28;20330;-86
2021/07/17 00:57:11;;;;;;;6.55;5.95;;;;;;;23.05;59.80;99118.03;5035857;28;20225;-87
2021/07/17 00:59:39;;;;;;;6.70;6.10;;;;;;;22.99;60.07;99108.38;5035638;28;20711;-87
2021/07/17 01:02:08;;;;;;;7.45;6.75;;;;;;;23.08;59.72;99112.75;5035089;28;20229;-87
2021/07/17 01:04:35;;;;;;;8.27;6.32;;;;;;;23.05;60.29;99126.25;5019288;28;20230;-87
2021/07/17 01:07:03;;;;;;;7.13;6.43;;;;;;;22.94;60.16;99103.84;5019274;28;20230;-87
2021/07/17 01:09:30;;;;;;;8.07;6.70;;;;;;;23.07;59.97;99113.88;5035867;28;20323;-87
2021/07/17 01:11:57;;;;;;;7.10;6.35;;;;;;;23.21;59.80;99108.31;5039452;28;20278;-87
2021/07/17 01:14:25;;;;;;;7.70;6.68;;;;;;;23.12;59.82;99102.81;5039187;28;20242;-87
2021/07/17 01:16:52;;;;;;;7.70;6.38;;;;;;;23.13;59.55;99096.22;5072645;28;20228;-86
2021/07/17 01:19:23;;;;;;;7.18;6.50;;;;;;;23.19;59.77;99102.34;5059693;28;20232;-86
2021/07/17 01:21:54;;;;;;;7.40;6.40;;;;;;;23.17;59.85;99090.94;5075911;28;20508;-86
2021/07/17 01:24:25;;;;;;;6.50;6.00;;;;;;;23.05;60.02;99082.53;5076705;28;20227;-87
2021/07/17 01:26:52;;;;;;;7.13;6.50;;;;;;;23.01;60.06;99090.53;5059252;28;20220;-86
2021/07/17 01:29:19;;;;;;;7.37;6.67;;;;;;;23.00;60.17;99099.88;5075876;28;20240;-87
2021/07/17 01:31:47;;;;;;;7.07;6.47;;;;;;;23.07;60.26;99107.59;5058949;28;20310;-86
2021/07/17 01:34:14;;;;;;;6.88;6.22;;;;;;;23.00;60.21;99107.25;5092055;28;20665;-86
2021/07/17 01:36:41;;;;;;;6.68;6.20;;;;;;;22.95;60.35;99102.72;5075624;28;20685;-87
2021/07/17 01:39:08;;;;;;;7.13;6.38;;;;;;;23.03;60.30;99115.63;5059220;28;20294;-86
2021/07/17 01:41:35;;;;;;;8.13;6.55;;;;;;;23.05;59.92;99102.44;5058910;28;20226;-87
2021/07/17 01:44:02;;;;;;;6.80;6.20;;;;;;;23.03;60.16;99103.88;5058838;28;20247;-85
2021/07/17 01:46:30;;;;;;;6.60;6.10;;;;;;;22.99;60.32;99100.16;5042111;28;20573;-87
2021/07/17 01:48:58;;;;;;;6.90;6.20;;;;;;;23.07;59.78;99089.28;5091951;28;20236;-87
2021/07/17 01:51:25;;;;;;;7.05;6.35;;;;;;;23.01;59.63;99071.41;5075560;28;20227;-86
2021/07/17 01:53:56;;;;;;;7.30;6.60;;;;;;;23.09;59.60;99097.97;5075054;28;20241;-87
2021/07/17 01:56:25;;;;;;;7.30;6.70;;;;;;;23.08;59.50;99092.81;5091602;28;20349;-86
2021/07/17 01:58:54;;;;;;;7.63;6.63;;;;;;;23.01;59.71;99085.06;5042036;28;20234;-86
2021/07/17 02:01:22;;;;;;;6.87;6.27;;;;;;;23.01;59.88;99092.44;5058534;28;20242;-86
2021/07/17 02:03:50;;;;;;;7.60;6.90;;;;;;;23.22;59.68;99085.31;5058617;28;20236;-88
2021/07/17 02:06:28;;;;;;;7.50;6.80;;;;;;;23.11;59.85;99078.50;5058508;28;20339;-87
2021/07/17 02:08:55;;;;;;;7.80;6.95;;;;;;;23.12;59.88;99088.34;5075231;28;20335;-87
2021/07/17 02:11:22;;;;;;;7.93;7.22;;;;;;;23.14;60.05;99078.69;5058328;28;20329;-86
2021/07/17 02:13:51;;;;;;;7.67;6.87;;;;;;;23.15;60.14;99079.50;5058470;28;20236;-87
2021/07/17 02:16:20;;;;;;;8.98;7.55;;;;;;;23.03;60.39;99073.81;5091367;28;20243;-86
2021/07/17 02:18:47;;;;;;;7.53;6.83;;;;;;;23.15;60.04;99058.44;5091752;28;20620;-87
2021/07/17 02:21:14;;;;;;;7.85;7.07;;;;;;;23.09;60.27;99061.66;5057484;28;20231;-87
2021/07/17 02:23:41;;;;;;;7.67;6.97;;;;;;;23.07;60.45;99066.59;5108339;28;20227;-86
2021/07/17 02:26:08;;;;;;;7.87;7.10;;;;;;;23.03;60.15;99054.72;5074389;28;20321;-86
2021/07/17 02:28:36;;;;;;;8.67;7.77;;;;;;;23.09;60.13;99054.25;5058101;28;20315;-86
2021/07/17 02:31:06;;;;;;;7.93;7.23;;;;;;;23.15;59.94;99058.44;5058133;28;20235;-88
2021/07/17 02:33:34;;;;;;;8.50;7.40;;;;;;;23.02;60.51;99070.28;5074828;28;20247;-87
2021/07/17 02:36:00;;;;;;;11.82;7.00;;;;;;;23.06;60.41;99065.00;5091460;28;20242;-86
2021/07/17 02:38:27;;;;;;;8.18;7.00;;;;;;;23.08;60.24;99069.03;5074329;28;20232;-88
2021/07/17 02:40:54;;;;;;;7.97;7.20;;;;;;;23.03;60.61;99057.44;5057633;28;20340;-87
2021/07/17 02:43:21;;;;;;;7.60;6.80;;;;;;;23.05;60.25;99060.66;5041392;28;20230;-87
2021/07/17 02:45:48;;;;;;;7.65;6.97;;;;;;;23.00;60.29;99042.50;5107875;28;20314;-88
2021/07/17 02:48:15;;;;;;;8.23;7.13;;;;;;;23.00;60.57;99041.69;5057046;28;20238;-87
2021/07/17 02:50:42;;;;;;;8.80;7.27;;;;;;;22.93;60.60;99035.84;5041199;28;20611;-87
2021/07/17 02:53:09;;;;;;;8.00;7.30;;;;;;;22.94;60.76;99041.00;5057873;28;20236;-88
2021/07/17 02:55:36;;;;;;;7.37;6.77;;;;;;;23.01;60.27;99024.97;5090854;28;20537;-88
2021/07/17 02:58:03;;;;;;;7.67;6.90;;;;;;;23.01;60.40;99032.34;5057489;28;20235;-88
2021/07/17 03:00:33;;;;;;;7.67;6.97;;;;;;;22.79;61.00;99025.03;5057274;28;20624;-87
2021/07/17 03:03:01;;;;;;;7.90;7.10;;;;;;;22.74;61.08;99011.50;5057600;28;20294;-87
2021/07/17 03:05:29;;;;;;;7.60;6.90;;;;;;;22.90;60.95;99033.75;5057694;28;20675;-89
2021/07/17 03:07:56;;;;;;;8.20;6.83;;;;;;;22.90;60.99;99018.19;5057374;28;20249;-88
2021/07/17 03:10:23;;;;;;;7.43;6.80;;;;;;;22.80;61.19;99027.47;5056915;28;20231;-89
2021/07/17 03:12:50;;;;;;;7.80;7.10;;;;;;;22.81;60.96;99023.63;5041046;28;20231;-88
2021/07/17 03:15:17;;;;;;;10.87;7.13;;;;;;;22.78;61.37;99028.88;5073747;28;20651;-87
2021/07/17 03:17:44;;;;;;;7.93;7.23;;;;;;;22.74;61.26;99030.63;5057424;28;20231;-88
2021/07/17 03:20:12;;;;;;;8.37;7.47;;;;;;;22.76;61.78;99036.59;5056537;28;20229;-89
2021/07/17 03:22:39;;;;;;;7.70;7.00;;;;;;;22.65;62.05;99051.59;5073770;28;20229;-87
2021/07/17 03:25:07;;;;;;;9.60;7.20;;;;;;;22.59;62.43;99069.22;5056993;28;20240;-88
2021/07/17 03:27:35;;;;;;;8.40;7.60;;;;;;;22.63;62.57;99086.59;5040539;28;20223;-87
2021/07/17 03:30:05;;;;;;;7.90;7.30;;;;;;;22.60;62.84;99089.94;5056656;28;20672;-86
2021/07/17 03:32:33;;;;;;;7.80;7.13;;;;;;;22.63;62.67;99113.91;5056892;28;20232;-87
2021/07/17 03:35:00;;;;;;;7.20;6.50;;;;;;;22.52;63.08;99137.91;5090031;28;20234;-87
2021/07/17 03:37:26;;;;;;;7.40;6.50;;;;;;;22.44;63.41;99149.56;5074540;28;20216;-87
2021/07/17 03:39:53;;;;;;;8.10;7.20;;;;;;;22.43;64.68;99188.91;5073298;28;20232;-88
2021/07/17 03:42:20;;;;;;;16.95;9.90;;;;;;;22.37;69.01;99203.75;5073409;28;20242;-94
2021/07/17 03:44:47;;;;;;;15.37;11.77;;;;;;;22.10;73.09;99214.72;5057555;28;20233;-93
2021/07/17 03:47:14;;;;;;;16.97;12.30;;;;;;;21.83;74.29;99201.91;5075153;28;20237;-88
2021/07/17 03:49:41;;;;;;;16.97;13.07;;;;;;;21.34;76.26;99200.63;5078414;28;20262;-86
2021/07/17 03:52:08;;;;;;;13.73;12.30;;;;;;;20.97;78.09;99214.34;5077252;28;20289;-96
2021/07/17 03:54:35;;;;;;;16.97;13.33;;;;;;;20.46;80.98;99215.13;5075100;28;20230;-96
2021/07/17 03:57:02;;;;;;;18.70;14.33;;;;;;;20.38;81.89;99206.81;5057712;28;20644;-96
2021/07/17 03:59:29;;;;;;;15.27;13.63;;;;;;;20.40;81.56;99215.47;5090333;28;20231;-94
2021/07/17 04:01:56;;;;;;;15.47;13.90;;;;;;;20.24;82.43;99220.31;5074022;28;20284;-96
2021/07/17 04:04:24;;;;;;;15.07;13.63;;;;;;;20.22;83.13;99209.69;5057633;28;20579;-96
2021/07/17 04:06:51;;;;;;;15.63;14.13;;;;;;;20.16;83.67;99201.91;5057392;28;20256;-96
2021/07/17 04:09:18;;;;;;;16.33;14.33;;;;;;;20.11;84.19;99193.84;5056726;28;20235;-96
2021/07/17 04:11:45;;;;;;;17.07;14.43;;;;;;;20.14;84.51;99204.13;5090224;28;20241;-93
2021/07/17 04:14:11;;;;;;;16.57;14.27;;;;;;;20.13;85.22;99188.88;5089886;28;20933;-89
2021/07/17 04:16:38;;;;;;;16.47;14.63;;;;;;;20.06;85.36;99191.97;5056964;28;20536;-89
2021/07/17 04:19:05;;;;;;;15.83;14.33;;;;;;;20.08;85.94;99197.94;5073334;28;20623;-95
2021/07/17 04:21:32;;;;;;;15.57;13.47;;;;;;;20.26;85.21;99214.56;5073978;28;20250;-96
2021/07/17 04:23:59;;;;;;;15.83;13.17;;;;;;;20.13;85.27;99189.69;5058746;28;20230;-89
2021/07/17 04:26:26;;;;;;;14.70;13.30;;;;;;;20.14;85.85;99183.16;5041056;28;20226;-97
2021/07/17 04:28:53;;;;;;;14.93;13.43;;;;;;;20.23;86.11;99188.75;5073703;28;20239;-92
2021/07/17 04:31:20;;;;;;;14.93;13.37;;;;;;;20.30;85.70;99204.69;5056513;28;20226;-96
2021/07/17 04:33:47;;;;;;;15.27;13.87;;;;;;;20.24;84.98;99206.69;5073286;28;20234;-96
2021/07/17 04:36:14;;;;;;;15.90;14.20;;;;;;;20.30;85.36;99202.81;5056026;28;20247;-87
2021/07/17 04:38:41;;;;;;;14.90;13.37;;;;;;;20.22;85.55;99207.00;5056876;28;20240;-85
2021/07/17 04:41:08;;;;;;;15.20;13.80;;;;;;;20.11;87.03;99218.31;5040118;28;20260;-95
2021/07/17 04:43:35;;;;;;;15.27;13.87;;;;;;;20.19;86.61;99220.38;5056917;28;20225;-90
2021/07/17 04:46:01;;;;;;;14.87;13.47;;;;;;;20.34;85.90;99233.81;5072615;28;20316;-88
2021/07/17 04:48:29;;;;;;;15.17;13.67;;;;;;;20.27;85.99;99225.16;5073120;28;20229;-90
2021/07/17 04:50:55;;;;;;;15.57;13.97;;;;;;;20.26;85.68;99230.88;5089876;28;20730;-94
2021/07/17 04:53:22;;;;;;;16.20;14.60;;;;;;;20.23;86.30;99235.81;5056411;28;20237;-93
2021/07/17 04:55:49;;;;;;;15.90;14.30;;;;;;;20.31;86.43;99231.66;5056554;28;20700;-96
2021/07/17 04:58:16;;;;;;;16.07;14.57;;;;;;;20.35;86.09;99215.53;5072300;28;20325;-95
2021/07/17 05:00:42;;;;;;;16.53;15.03;;;;;;;20.34;85.84;99195.72;5072898;28;20310;-90
2021/07/17 05:03:09;;;;;;;16.30;14.70;;;;;;;20.43;85.30;99195.84;5056202;28;20289;-91
2021/07/17 05:05:36;;;;;;;16.40;14.80;;;;;;;20.42;86.28;99195.06;5072706;28;20232;-92
2021/07/17 05:08:03;;;;;;;16.57;15.03;;;;;;;20.43;86.47;99213.00;5055754;28;20286;-94
2021/07/17 05:10:30;;;;;;;16.00;14.50;;;;;;;20.37;86.53;99203.28;5072462;28;20233;-87
2021/07/17 05:12:57;;;;;;;15.27;13.97;;;;;;;20.45;86.65;99204.53;5055926;28;20320;-96
2021/07/17 05:15:24;;;;;;;15.10;13.80;;;;;;;20.25;86.65;99183.03;5089479;28;20224;-88
2021/07/17 05:17:51;;;;;;;14.93;13.60;;;;;;;20.27;87.01;99180.81;5089425;28;20312;-91
2021/07/17 05:20:18;;;;;;;14.13;12.90;;;;;;;20.41;86.29;99181.72;5072243;28;20231;-95
2021/07/17 05:22:46;;;;;;;14.60;13.17;;;;;;;20.57;85.43;99191.28;5073151;28;20233;-95
2021/07/17 05:25:12;;;;;;;13.20;12.00;;;;;;;20.66;84.95;99197.69;5073082;28;20237;-88
2021/07/17 05:27:39;;;;;;;13.00;11.70;;;;;;;20.58;85.41;99190.16;5055693;28;20231;-94
2021/07/17 05:30:06;;;;;;;13.47;12.07;;;;;;;20.78;84.63;99197.22;5073263;28;20232;-95
2021/07/17 05:32:33;;;;;;;12.13;11.03;;;;;;;20.82;84.40;99200.97;5072725;28;20312;-89
2021/07/17 05:35:00;;;;;;;11.53;10.43;;;;;;;20.98;83.32;99207.78;5089107;28;20231;-92
2021/07/17 05:37:27;;;;;;;11.17;10.17;;;;;;;21.00;82.83;99190.03;5073037;28;20238;-89
2021/07/17 05:39:54;;;;;;;11.53;10.43;;;;;;;21.05;82.69;99208.19;5072351;28;20255;-91
2021/07/17 05:42:21;;;;;;;11.57;10.57;;;;;;;21.09;82.15;99206.50;5055365;28;20235;-88
2021/07/17 05:44:48;;;;;;;11.43;10.43;;;;;;;20.98;82.35;99197.72;5072673;28;20315;-89
2021/07/17 05:47:15;;;;;;;11.37;10.37;;;;;;;20.91;82.07;99193.72;5089178;28;20241;-88
2021/07/17 05:49:42;;;;;;;11.80;10.80;;;;;;;20.99;82.19;99191.16;5055966;28;20314;-89
2021/07/17 05:52:09;;;;;;;12.10;11.00;;;;;;;21.01;83.15;99210.72;5072020;28;20254;-95
2021/07/17 05:54:36;;;;;;;11.80;10.90;;;;;;;20.99;83.59;99214.84;5039563;28;20236;-96
2021/07/17 05:57:03;;;;;;;11.70;10.60;;;;;;;21.08;82.79;99218.50;5074602;28;20251;-90
2021/07/17 05:59:30;;;;;;;11.13;10.20;;;;;;;20.97;83.35;99208.88;5060726;28;20251;-96
2021/07/17 06:01:56;;;;;;;10.77;9.67;;;;;;;21.12;81.79;99224.16;5075758;28;20231;-91
2021/07/17 06:04:24;;;;;;;11.93;10.73;;;;;;;21.27;81.66;99229.41;5059383;28;20691;-90
2021/07/17 06:06:51;;;;;;;10.60;9.60;;;;;;;21.25;81.38;99202.44;5059828;28;20651;-93
2021/07/17 06:09:18;;;;;;;11.27;10.17;;;;;;;21.33;81.24;99214.56;5059419;28;20414;-89
2021/07/17 06:11:45;;;;;;;11.47;10.43;;;;;;;21.42;81.10;99223.66;5076160;28;20541;-89
2021/07/17 06:14:11;;;;;;;10.70;9.70;;;;;;;21.52;80.47;99226.19;5075449;28;20254;-89
2021/07/17 06:16:38;;;;;;;10.63;9.73;;;;;;;21.64;80.33;99212.09;5042858;28;20230;-90
2021/07/17 06:19:05;;;;;;;11.83;10.73;;;;;;;21.95;79.41;99219.38;5060226;28;20595;-89
2021/07/17 06:21:32;;;;;;;11.87;10.77;;;;;;;22.08;79.76;99204.13;5058474;28;20645;-89
2021/07/17 06:24:00;;;;;;;11.07;10.07;;;;;;;22.42;78.56;99206.38;5067493;28;20218;-91
2021/07/17 06:26:27;;;;;;;11.37;10.30;;;;;;;22.53;76.84;99190.59;5041704;28;20304;-91
2021/07/17 06:28:53;;;;;;;10.57;9.60;;;;;;;22.98;76.16;99205.09;5050813;28;20230;-91
2021/07/17 06:31:20;;;;;;;10.02;9.18;;;;;;;23.30;74.44;99207.53;5041837;28;20250;-90
2021/07/17 06:33:48;;;;;;;9.40;8.60;;;;;;;23.42;74.02;99213.25;5041876;28;20636;-91
2021/07/17 06:36:18;;;;;;;9.65;8.88;;;;;;;23.35;74.13;99223.00;5065424;28;20223;-87
2021/07/17 06:38:45;;;;;;;9.60;8.70;;;;;;;23.43;73.86;99212.09;5042284;28;20245;-87
2021/07/17 06:41:14;;;;;;;9.73;8.82;;;;;;;23.95;72.20;99218.63;5042169;28;20314;-88
2021/07/17 06:43:42;;;;;;;9.55;8.75;;;;;;;24.25;71.18;99216.97;5039697;28;20369;-90
2021/07/17 06:46:09;;;;;;;9.02;8.23;;;;;;;24.62;69.71;99210.09;5038910;28;20290;-87
2021/07/17 06:48:35;;;;;;;7.97;7.38;;;;;;;24.87;68.86;99194.81;5056945;28;20231;-88
2021/07/17 06:51:02;;;;;;;7.40;6.80;;;;;;;25.17;67.32;99202.00;5041157;28;20316;-84
2021/07/17 06:53:34;;;;;;;8.27;7.47;;;;;;;25.48;67.16;99184.47;5066736;28;20641;-89
2021/07/17 06:56:01;;;;;;;7.90;7.20;;;;;;;25.52;66.89;99188.19;5057060;28;20343;-86
2021/07/17 06:58:28;;;;;;;8.27;7.47;;;;;;;25.56;66.97;99186.44;5041293;28;20531;-88
2021/07/17 07:00:54;;;;;;;7.78;7.15;;;;;;;25.44;66.80;99189.81;5041043;28;20221;-89
2021/07/17 07:03:21;;;;;;;7.82;7.05;;;;;;;25.24;66.85;99183.09;5057660;28;20239;-87
2021/07/17 07:05:49;;;;;;;7.70;7.00;;;;;;;25.21;67.14;99185.69;5057337;28;20231;-87
2021/07/17 07:08:16;;;;;;;7.93;7.22;;;;;;;25.03;67.53;99203.31;5073746;28;20257;-87
2021/07/17 07:10:42;;;;;;;7.95;7.35;;;;;;;24.77;69.25;99203.31;5056122;28;20238;-90
2021/07/17 07:13:10;;;;;;;8.05;7.35;;;;;;;24.53;70.16;99201.06;5056810;28;20643;-87
2021/07/17 07:15:37;;;;;;;8.60;7.88;;;;;;;24.33;70.72;99209.88;5056777;28;20290;-88
2021/07/17 07:18:05;;;;;;;8.40;7.70;;;;;;;24.26;70.94;99202.16;5055942;28;20323;-89
2021/07/17 07:20:32;;;;;;;8.50;7.78;;;;;;;24.30;70.82;99207.81;5071104;28;20231;-87
2021/07/17 07:22:59;;;;;;;8.07;7.40;;;;;;;24.21;71.39;99212.47;5070755;28;20233;-89
2021/07/17 07:25:26;;;;;;;7.90;7.30;;;;;;;24.10;71.02;99209.97;5055797;28;20325;-88
2021/07/17 07:27:53;;;;;;;7.00;6.40;;;;;;;24.04;70.49;99222.19;5056808;28;20261;-89
2021/07/17 07:30:20;;;;;;;6.07;5.68;;;;;;;23.84;70.86;99227.44;5056811;28;20240;-87
2021/07/17 07:32:49;;;;;;;7.05;6.45;;;;;;;23.57;71.94;99234.72;5073314;28;20339;-88
2021/07/17 07:35:20;;;;;;;6.30;5.80;;;;;;;23.35;72.30;99229.28;5056807;28;20237;-87
2021/07/17 07:37:48;;;;;;;5.82;5.30;;;;;;;23.15;72.55;99227.84;5056462;28;20260;-88
2021/07/17 07:40:15;;;;;;;5.18;4.70;;;;;;;23.06;73.46;99227.00;5039494;28;20308;-86
2021/07/17 07:42:42;;;;;;;4.95;4.55;;;;;;;23.08;73.16;99222.03;5056538;28;20225;-87
2021/07/17 07:45:09;;;;;;;5.78;5.35;;;;;;;22.98;73.40;99216.81;5039938;28;20232;-90
2021/07/17 07:47:36;;;;;;;4.72;4.32;;;;;;;22.99;72.96;99228.56;5055800;28;20251;-87
2021/07/17 07:50:06;;;;;;;4.55;4.25;;;;;;;22.93;73.16;99229.78;5056166;28;20315;-90
2021/07/17 07:52:33;;;;;;;4.50;4.10;;;;;;;22.79;73.92;99224.38;5056888;28;20534;-88
2021/07/17 07:55:01;;;;;;;4.47;4.07;;;;;;;22.74;73.93;99221.78;5073186;28;20252;-86
2021/07/17 07:57:28;;;;;;;4.45;4.13;;;;;;;22.68;74.33;99226.50;5056736;28;20237;-88
2021/07/17 07:59:55;;;;;;;4.45;4.13;;;;;;;22.59;73.96;99224.81;5072964;28;20639;-87
2021/07/17 08:02:22;;;;;;;4.38;3.97;;;;;;;22.46;74.71;99236.59;5073902;28;20229;-89
2021/07/17 08:04:49;;;;;;;4.07;3.78;;;;;;;22.52;75.16;99249.84;5072621;28;20229;-88
2021/07/17 08:07:16;;;;;;;4.60;3.90;;;;;;;22.47;75.15;99236.28;5054693;28;20237;-87
2021/07/17 08:09:42;;;;;;;4.30;4.00;;;;;;;22.34;75.68;99231.69;5072274;28;20234;-87
2021/07/17 08:12:09;;;;;;;4.22;3.83;;;;;;;22.33;75.97;99244.50;5072602;28;20240;-88
2021/07/17 08:14:36;;;;;;;4.43;4.07;;;;;;;22.26;76.19;99246.03;5038749;28;20311;-87
2021/07/17 08:17:06;;;;;;;3.50;3.30;;;;;;;22.24;76.30;99245.53;5053338;28;20240;-87
2021/07/17 08:19:33;;;;;;;3.75;3.45;;;;;;;22.21;75.93;99251.63;5055492;28;20684;-88
2021/07/17 08:22:01;;;;;;;3.72;3.42;;;;;;;22.15;76.13;99252.81;5056026;28;20228;-89
2021/07/17 08:24:28;;;;;;;3.38;3.17;;;;;;;22.07;76.64;99253.53;5053811;28;20533;-88
2021/07/17 08:26:56;;;;;;;3.70;3.40;;;;;;;22.06;76.67;99254.66;5054914;28;20217;-87
2021/07/17 08:29:23;;;;;;;3.60;3.35;;;;;;;22.01;76.79;99257.47;5072523;28;20316;-88
2021/07/17 08:31:50;;;;;;;3.72;3.42;;;;;;;22.00;76.81;99253.94;5055641;28;20875;-87
2021/07/17 08:34:17;;;;;;;3.53;3.22;;;;;;;22.02;77.04;99261.81;5072328;28;20246;-85
2021/07/17 08:36:44;;;;;;;3.70;3.40;;;;;;;21.94;77.60;99244.22;5055963;28;20308;-89
2021/07/17 08:39:11;;;;;;;3.77;3.47;;;;;;;22.00;77.62;99251.22;5056111;28;20235;-86
2021/07/17 08:41:39;;;;;;;3.60;3.40;;;;;;;21.86;77.68;99248.44;5072333;28;20320;-90
2021/07/17 08:44:08;;;;;;;4.03;3.47;;;;;;;21.78;78.00;99251.88;5072280;28;20243;-87
2021/07/17 08:46:36;;;;;;;4.03;3.65;;;;;;;21.84;78.14;99280.66;5055779;28;20241;-90
2021/07/17 08:49:03;;;;;;;4.77;4.10;;;;;;;21.66;79.17;99270.63;5056099;28;20228;-88
2021/07/17 08:51:31;;;;;;;7.37;5.90;;;;;;;21.50;80.31;99259.22;5056377;28;20232;-89
2021/07/17 08:53:59;;;;;;;8.70;7.20;;;;;;;21.54;81.14;99262.16;5039629;28;20631;-86
2021/07/17 08:56:25;;;;;;;8.27;7.27;;;;;;;21.55;82.00;99252.88;5072590;28;20315;-88
2021/07/17 08:58:52;;;;;;;6.40;5.73;;;;;;;21.66;81.42;99231.66;5072317;28;20298;-85
2021/07/17 09:01:19;;;;;;;5.93;4.90;;;;;;;21.74;81.48;99217.34;5055949;28;20263;-82
2021/07/17 09:03:47;;;;;;;6.73;5.67;;;;;;;21.85;80.60;99202.38;5071532;28;20235;-88
2021/07/17 09:06:14;;;;;;;7.03;5.93;;;;;;;22.05;79.89;99203.91;5055632;28;20234;-91
2021/07/17 09:08:41;;;;;;;6.90;6.20;;;;;;;22.33;78.34;99195.38;5071870;28;20246;-87
2021/07/17 09:11:08;;;;;;;6.87;5.90;;;;;;;22.72;77.28;99213.88;5054751;28;20239;-89
2021/07/17 09:13:35;;;;;;;6.45;5.85;;;;;;;23.02;75.88;99217.81;5055488;28;20318;-90
2021/07/17 09:16:07;;;;;;;6.50;5.93;;;;;;;23.32;74.58;99212.69;5038356;28;20235;-91
2021/07/17 09:18:53;;;;;;;6.53;5.88;;;;;;;23.65;73.00;99208.56;5052378;28;20439;-89
2021/07/17 09:21:32;;;;;;;6.97;6.47;;;;;;;24.21;71.42;99220.66;5038069;28;20313;-88
2021/07/17 09:24:09;;;;;;;6.68;6.05;;;;;;;24.69;69.96;99218.59;5055638;28;20298;-90
2021/07/17 09:26:38;;;;;;;7.25;6.65;;;;;;;25.10;68.27;99204.44;5038910;28;20224;-88
2021/07/17 09:29:12;;;;;;;7.30;6.65;;;;;;;25.36;67.15;99201.63;5038374;28;20227;-89
2021/07/17 09:31:48;;;;;;;7.28;6.68;;;;;;;25.89;66.31;99197.56;5056647;28;20256;-88
2021/07/17 09:34:17;;;;;;;9.32;7.50;;;;;;;26.32;65.02;99189.91;5075024;28;20226;-89
2021/07/17 09:36:55;;;;;;;7.55;6.85;;;;;;;26.67;64.01;99171.22;5074823;28;20264;-89
2021/07/17 09:39:29;;;;;;;8.10;7.28;;;;;;;26.61;63.73;99172.53;5075419;28;20571;-90
2021/07/17 09:42:02;;;;;;;8.88;7.88;;;;;;;26.66;63.26;99180.59;5040025;28;20334;-89
2021/07/17 09:44:32;;;;;;;9.68;8.88;;;;;;;26.54;63.90;99184.09;5032513;28;20228;-88
2021/07/17 09:46:59;;;;;;;9.57;8.77;;;;;;;26.09;64.67;99180.31;5053540;28;20234;-88
2021/07/17 09:49:27;;;;;;;9.85;9.05;;;;;;;26.08;65.23;99171.28;5064703;28;20241;-88
2021/07/17 09:52:07;;;;;;;10.20;9.40;;;;;;;26.46;64.50;99179.44;5057676;28;20359;-88
2021/07/17 09:54:38;;;;;;;10.90;10.00;;;;;;;26.28;64.93;99183.47;5077746;28;20240;-86
2021/07/17 09:57:05;;;;;;;11.77;10.77;;;;;;;26.78;63.00;99175.16;5094658;28;20698;-87
2021/07/17 09:59:31;;;;;;;12.38;11.23;;;;;;;27.24;62.03;99174.06;5078665;28;20228;-88
2021/07/17 10:01:58;;;;;;;12.57;11.38;;;;;;;27.30;60.03;99177.38;5048306;28;20266;-87
2021/07/17 10:04:26;;;;;;;12.27;11.07;;;;;;;27.07;62.13;99180.53;5061597;28;20236;-89
2021/07/17 10:06:59;;;;;;;12.52;11.43;;;;;;;27.42;60.11;99169.97;5078339;28;20545;-88
2021/07/17 10:09:25;;;;;;;12.95;11.65;;;;;;;27.35;60.06;99188.16;5042724;28;20221;-87
2021/07/17 10:12:00;;;;;;;12.85;11.75;;;;;;;26.98;61.02;99190.81;5065673;28;20606;-87
2021/07/17 10:14:33;;;;;;;12.63;11.50;;;;;;;26.36;62.43;99195.53;5037641;28;20231;-84
2021/07/17 10:17:13;;;;;;;13.18;12.00;;;;;;;26.20;62.49;99185.09;5078551;28;20231;-87
2021/07/17 10:19:41;;;;;;;12.43;11.52;;;;;;;26.29;62.30;99193.31;5059788;28;20289;-86
2021/07/17 10:22:10;;;;;;;13.27;12.13;;;;;;;26.02;64.12;99188.28;5057548;28;20319;-87
2021/07/17 10:24:37;;;;;;;13.18;12.07;;;;;;;26.29;63.20;99177.66;5057966;28;20235;-88
2021/07/17 10:27:05;;;;;;;13.95;12.77;;;;;;;26.48;62.27;99179.13;5076476;28;20317;-86
2021/07/17 10:29:32;;;;;;;13.10;12.00;;;;;;;27.10;60.74;99190.06;5094719;28;20309;-86
2021/07/17 10:31:59;;;;;;;15.10;13.85;;;;;;;26.97;60.74;99177.44;5078374;28;20242;-87
2021/07/17 10:34:27;;;;;;;14.45;13.07;;;;;;;26.99;60.94;99183.38;5078060;28;20265;-87
2021/07/17 10:37:13;;;;;;;13.63;12.30;;;;;;;27.38;61.23;99185.56;5078704;28;20284;-87
2021/07/17 10:39:44;;;;;;;13.45;12.02;;;;;;;27.46;58.82;99186.59;5078059;28;20223;-87
2021/07/17 10:42:14;;;;;;;13.52;11.93;;;;;;;27.83;59.03;99181.94;5060265;28;20231;-87
2021/07/17 10:44:49;;;;;;;13.02;11.82;;;;;;;27.77;59.10;99181.38;5075688;28;20643;-88
2021/07/17 10:47:17;;;;;;;13.68;12.38;;;;;;;28.05;57.53;99178.72;5060973;28;20227;-87
2021/07/17 10:49:53;;;;;;;13.55;12.20;;;;;;;28.02;56.76;99182.19;5060469;28;20582;-86
2021/07/17 10:52:43;;;;;;;13.60;12.30;;;;;;;27.82;57.65;99177.59;5075433;28;20251;-87
2021/07/17 10:55:28;;;;;;;13.38;12.18;;;;;;;27.58;59.15;99183.88;5092768;28;20232;-87
2021/07/17 10:58:00;;;;;;;13.40;12.10;;;;;;;27.10;60.58;99174.38;5095180;28;20587;-87
2021/07/17 11:00:42;;;;;;;13.50;12.30;;;;;;;26.92;61.14;99175.69;5093584;28;20219;-87
2021/07/17 11:03:29;;;;;;;14.70;13.35;;;;;;;26.72;61.51;99169.06;5094255;28;20236;-86
2021/07/17 11:05:57;;;;;;;13.73;12.60;;;;;;;26.58;62.05;99168.53;5076978;28;20234;-86
2021/07/17 11:08:42;;;;;;;14.02;12.73;;;;;;;26.74;61.89;99172.25;5076094;28;20318;-88
2021/07/17 11:11:27;;;;;;;14.18;12.88;;;;;;;26.83;61.63;99168.66;5076261;28;20685;-86
2021/07/17 11:13:55;;;;;;;13.98;12.68;;;;;;;26.80;61.32;99163.81;5093602;28;20223;-87
2021/07/17 11:16:42;;;;;;;14.55;13.32;;;;;;;27.06;61.27;99170.69;5059423;28;20577;-87
2021/07/17 11:19:28;;;;;;;14.43;13.10;;;;;;;27.28;59.96;99155.75;5077582;28;20529;-87
2021/07/17 11:21:56;;;;;;;13.77;12.25;;;;;;;27.75;58.59;99163.59;5076819;28;20244;-87
2021/07/17 11:24:25;;;;;;;13.90;12.50;;;;;;;28.02;57.76;99160.94;5077209;28;20235;-85
2021/07/17 11:27:12;;;;;;;13.88;12.52;;;;;;;28.29;56.24;99153.94;5076880;28;20255;-86
2021/07/17 11:29:45;;;;;;;13.57;12.55;;;;;;;28.43;56.49;99153.53;5094063;28;20229;-85
2021/07/17 11:32:13;;;;;;;14.75;13.25;;;;;;;28.64;55.63;99148.66;5076987;28;20248;-86